sensor_id;sensor_type;location;lat;lon;timestamp;pressure;altitude;pressure_sealevel;temperature;humidity
7309;BME280;3695;53.330;9.876;2023-11-22T00:00:28;101825.63;;;6.28;66.87
7309;BME280;3695;53.330;9.876;2023-11-22T00:02:56;101818.03;;;6.02;67.10
7309;BME280;3695;53.330;9.876;2023-11-22T00:05:22;101827.13;;;5.81;66.83
7309;BME280;3695;53.330;9.876;2023-11-22T00:07:49;101833.66;;;5.87;66.58
7309;BME280;3695;53.330;9.876;2023-11-22T00:10:15;101844.19;;;5.61;66.64
7309;BME280;3695;53.330;9.876;2023-11-22T00:12:41;101841.72;;;5.77;66.94
7309;BME280;3695;53.330;9.876;2023-11-22T00:15:09;101842.63;;;5.78;66.87
7309;BME280;3695;53.330;9.876;2023-11-22T00:17:37;101843.75;;;5.68;66.92
7309;BME280;3695;53.330;9.876;2023-11-22T00:20:04;101850.66;;;5.53;67.04
7309;BME280;3695;53.330;9.876;2023-11-22T00:22:31;101838.19;;;5.34;67.47
7309;BME280;3695;53.330;9.876;2023-11-22T00:24:58;101843.13;;;5.29;67.61
7309;BME280;3695;53.330;9.876;2023-11-22T00:27:26;101836.06;;;5.42;67.20
7309;BME280;3695;53.330;9.876;2023-11-22T00:29:53;101831.69;;;5.27;67.97
7309;BME280;3695;53.330;9.876;2023-11-22T00:32:20;101841.06;;;5.39;67.32
7309;BME280;3695;53.330;9.876;2023-11-22T00:34:47;101832.16;;;5.63;67.94
7309;BME280;3695;53.330;9.876;2023-11-22T00:37:14;101843.88;;;5.42;67.51
7309;BME280;3695;53.330;9.876;2023-11-22T00:39:40;101839.78;;;5.32;67.11
7309;BME280;3695;53.330;9.876;2023-11-22T00:42:06;101843.06;;;5.43;67.16
7309;BME280;3695;53.330;9.876;2023-11-22T00:44:33;101846.03;;;5.21;67.62
7309;BME280;3695;53.330;9.876;2023-11-22T00:47:01;101854.53;;;5.31;67.56
7309;BME280;3695;53.330;9.876;2023-11-22T00:49:29;101858.66;;;5.28;67.10
7309;BME280;3695;53.330;9.876;2023-11-22T00:51:55;101878.53;;;5.13;67.68
7309;BME280;3695;53.330;9.876;2023-11-22T00:54:22;101883.78;;;5.00;68.27
7309;BME280;3695;53.330;9.876;2023-11-22T00:56:48;101875.91;;;5.26;67.75
7309;BME280;3695;53.330;9.876;2023-11-22T00:59:15;101880.81;;;5.35;67.48
7309;BME280;3695;53.330;9.876;2023-11-22T01:01:41;101883.16;;;5.17;67.59
7309;BME280;3695;53.330;9.876;2023-11-22T01:04:08;101888.59;;;4.94;68.34
7309;BME280;3695;53.330;9.876;2023-11-22T01:06:36;101900.31;;;5.00;67.65
7309;BME280;3695;53.330;9.876;2023-11-22T01:09:03;101914.44;;;4.90;68.13
7309;BME280;3695;53.330;9.876;2023-11-22T01:11:29;101902.31;;;4.91;67.90
7309;BME280;3695;53.330;9.876;2023-11-22T01:13:56;101897.81;;;4.88;67.70
7309;BME280;3695;53.330;9.876;2023-11-22T01:16:22;101892.59;;;4.88;68.63
7309;BME280;3695;53.330;9.876;2023-11-22T01:18:49;101893.09;;;4.96;68.46
7309;BME280;3695;53.330;9.876;2023-11-22T01:21:15;101887.78;;;4.95;68.26
7309;BME280;3695;53.330;9.876;2023-11-22T01:23:43;101893.81;;;4.94;67.72
7309;BME280;3695;53.330;9.876;2023-11-22T01:26:11;101889.28;;;5.04;67.77
7309;BME280;3695;53.330;9.876;2023-11-22T01:28:37;101881.72;;;5.22;68.16
7309;BME280;3695;53.330;9.876;2023-11-22T01:31:10;101875.97;;;5.00;67.80
7309;BME280;3695;53.330;9.876;2023-11-22T01:33:37;101879.50;;;4.87;67.66
7309;BME280;3695;53.330;9.876;2023-11-22T01:36:04;101880.69;;;4.92;67.73
7309;BME280;3695;53.330;9.876;2023-11-22T01:38:30;101884.81;;;4.75;68.47
7309;BME280;3695;53.330;9.876;2023-11-22T01:40:58;101885.56;;;5.01;67.68
7309;BME280;3695;53.330;9.876;2023-11-22T01:43:26;101894.88;;;5.10;67.56
7309;BME280;3695;53.330;9.876;2023-11-22T01:45:54;101896.13;;;4.76;68.33
7309;BME280;3695;53.330;9.876;2023-11-22T01:48:20;101901.81;;;4.83;67.85
7309;BME280;3695;53.330;9.876;2023-11-22T01:50:47;101902.03;;;4.86;68.40
7309;BME280;3695;53.330;9.876;2023-11-22T01:53:15;101903.94;;;4.76;67.73
7309;BME280;3695;53.330;9.876;2023-11-22T01:55:43;101915.34;;;4.65;67.84
7309;BME280;3695;53.330;9.876;2023-11-22T01:58:12;101922.56;;;4.82;68.40
7309;BME280;3695;53.330;9.876;2023-11-22T02:00:44;101924.66;;;4.74;68.38
7309;BME280;3695;53.330;9.876;2023-11-22T02:03:11;101908.03;;;4.59;68.49
7309;BME280;3695;53.330;9.876;2023-11-22T02:05:39;101907.41;;;4.76;68.11
7309;BME280;3695;53.330;9.876;2023-11-22T02:08:08;101910.94;;;4.64;68.07
7309;BME280;3695;53.330;9.876;2023-11-22T02:10:34;101911.06;;;4.52;68.31
7309;BME280;3695;53.330;9.876;2023-11-22T02:13:02;101907.13;;;4.85;68.38
7309;BME280;3695;53.330;9.876;2023-11-22T02:15:31;101901.13;;;4.86;68.12
7309;BME280;3695;53.330;9.876;2023-11-22T02:17:58;101904.81;;;4.50;68.39
7309;BME280;3695;53.330;9.876;2023-11-22T02:20:25;101909.34;;;4.79;67.84
7309;BME280;3695;53.330;9.876;2023-11-22T02:22:52;101908.31;;;4.90;68.05
7309;BME280;3695;53.330;9.876;2023-11-22T02:25:20;101917.66;;;4.73;67.19
7309;BME280;3695;53.330;9.876;2023-11-22T02:27:46;101930.38;;;4.18;67.68
7309;BME280;3695;53.330;9.876;2023-11-22T02:30:13;101929.47;;;4.17;68.09
7309;BME280;3695;53.330;9.876;2023-11-22T02:32:40;101942.22;;;4.26;68.30
7309;BME280;3695;53.330;9.876;2023-11-22T02:35:07;101947.00;;;4.20;67.92
7309;BME280;3695;53.330;9.876;2023-11-22T02:37:34;101945.75;;;4.01;68.09
7309;BME280;3695;53.330;9.876;2023-11-22T02:40:05;101942.22;;;4.26;68.81
7309;BME280;3695;53.330;9.876;2023-11-22T02:42:34;101951.59;;;4.24;68.55
7309;BME280;3695;53.330;9.876;2023-11-22T02:45:00;101950.53;;;3.95;68.87
7309;BME280;3695;53.330;9.876;2023-11-22T02:47:26;101950.88;;;4.13;68.21
7309;BME280;3695;53.330;9.876;2023-11-22T02:49:53;101945.94;;;4.42;67.98
7309;BME280;3695;53.330;9.876;2023-11-22T02:52:20;101947.75;;;4.05;68.00
7309;BME280;3695;53.330;9.876;2023-11-22T02:54:47;101946.28;;;4.09;68.25
7309;BME280;3695;53.330;9.876;2023-11-22T02:57:14;101950.59;;;4.08;68.68
7309;BME280;3695;53.330;9.876;2023-11-22T02:59:42;101949.50;;;4.18;68.54
7309;BME280;3695;53.330;9.876;2023-11-22T03:02:09;101948.22;;;4.25;68.57
7309;BME280;3695;53.330;9.876;2023-11-22T03:04:35;101952.94;;;4.05;68.34
7309;BME280;3695;53.330;9.876;2023-11-22T03:07:02;101946.59;;;4.14;68.31
7309;BME280;3695;53.330;9.876;2023-11-22T03:09:28;101951.47;;;3.84;68.43
7309;BME280;3695;53.330;9.876;2023-11-22T03:11:55;101955.13;;;3.99;68.35
7309;BME280;3695;53.330;9.876;2023-11-22T03:14:21;101957.19;;;4.17;68.46
7309;BME280;3695;53.330;9.876;2023-11-22T03:16:50;101962.88;;;4.11;67.82
7309;BME280;3695;53.330;9.876;2023-11-22T03:19:17;101966.97;;;4.07;68.15
7309;BME280;3695;53.330;9.876;2023-11-22T03:21:44;101959.84;;;4.05;68.56
7309;BME280;3695;53.330;9.876;2023-11-22T03:24:11;101967.25;;;4.37;67.78
7309;BME280;3695;53.330;9.876;2023-11-22T03:26:38;101965.88;;;4.42;67.25
7309;BME280;3695;53.330;9.876;2023-11-22T03:29:04;101967.25;;;4.37;67.67
7309;BME280;3695;53.330;9.876;2023-11-22T03:31:31;101957.53;;;4.21;67.01
7309;BME280;3695;53.330;9.876;2023-11-22T03:33:59;101962.38;;;4.03;67.38
7309;BME280;3695;53.330;9.876;2023-11-22T03:36:25;101969.16;;;4.01;67.36
7309;BME280;3695;53.330;9.876;2023-11-22T03:38:52;101974.34;;;4.01;67.56
7309;BME280;3695;53.330;9.876;2023-11-22T03:41:19;101983.25;;;4.30;67.86
7309;BME280;3695;53.330;9.876;2023-11-22T03:43:46;101985.84;;;4.30;67.64
7309;BME280;3695;53.330;9.876;2023-11-22T03:46:12;101988.22;;;4.14;67.37
7309;BME280;3695;53.330;9.876;2023-11-22T03:48:39;101995.66;;;3.96;67.74
7309;BME280;3695;53.330;9.876;2023-11-22T03:51:06;101998.31;;;4.34;67.26
7309;BME280;3695;53.330;9.876;2023-11-22T03:53:33;101997.91;;;4.16;67.64
7309;BME280;3695;53.330;9.876;2023-11-22T03:55:59;101993.59;;;4.17;67.44
7309;BME280;3695;53.330;9.876;2023-11-22T03:58:26;102000.38;;;4.26;66.76
7309;BME280;3695;53.330;9.876;2023-11-22T04:00:52;102007.06;;;3.86;67.44
7309;BME280;3695;53.330;9.876;2023-11-22T04:03:19;102010.19;;;3.69;67.16
7309;BME280;3695;53.330;9.876;2023-11-22T04:05:45;102014.88;;;3.86;67.55
7309;BME280;3695;53.330;9.876;2023-11-22T04:08:13;102011.91;;;3.93;67.85
7309;BME280;3695;53.330;9.876;2023-11-22T04:10:40;102021.97;;;4.00;67.69
7309;BME280;3695;53.330;9.876;2023-11-22T04:13:07;102018.56;;;4.01;68.24
7309;BME280;3695;53.330;9.876;2023-11-22T04:15:34;102015.19;;;4.02;68.46
7309;BME280;3695;53.330;9.876;2023-11-22T04:18:00;102020.16;;;3.99;68.41
7309;BME280;3695;53.330;9.876;2023-11-22T04:20:26;102027.16;;;4.00;68.71
7309;BME280;3695;53.330;9.876;2023-11-22T04:22:53;102018.56;;;4.01;68.82
7309;BME280;3695;53.330;9.876;2023-11-22T04:25:21;102021.84;;;3.99;68.58
7309;BME280;3695;53.330;9.876;2023-11-22T04:27:49;102017.75;;;4.14;68.12
7309;BME280;3695;53.330;9.876;2023-11-22T04:30:15;102014.53;;;3.93;68.20
7309;BME280;3695;53.330;9.876;2023-11-22T04:32:42;102006.16;;;3.97;68.11
7309;BME280;3695;53.330;9.876;2023-11-22T04:35:09;102009.13;;;3.90;68.67
7309;BME280;3695;53.330;9.876;2023-11-22T04:37:36;102009.50;;;4.08;68.61
7309;BME280;3695;53.330;9.876;2023-11-22T04:40:05;102002.25;;;4.04;67.95
7309;BME280;3695;53.330;9.876;2023-11-22T04:42:34;101994.09;;;4.11;68.25
7309;BME280;3695;53.330;9.876;2023-11-22T04:45:01;101992.81;;;4.18;68.60
7309;BME280;3695;53.330;9.876;2023-11-22T04:47:27;101997.03;;;4.16;68.41
7309;BME280;3695;53.330;9.876;2023-11-22T04:49:54;101999.34;;;4.24;68.73
7309;BME280;3695;53.330;9.876;2023-11-22T04:52:20;102002.41;;;4.43;68.32
7309;BME280;3695;53.330;9.876;2023-11-22T04:54:47;102003.84;;;4.65;68.30
7309;BME280;3695;53.330;9.876;2023-11-22T04:57:13;102016.88;;;4.27;67.70
7309;BME280;3695;53.330;9.876;2023-11-22T04:59:41;102017.63;;;4.13;67.87
7309;BME280;3695;53.330;9.876;2023-11-22T05:02:08;102024.63;;;4.14;67.88
7309;BME280;3695;53.330;9.876;2023-11-22T05:04:36;102006.53;;;4.15;68.07
7309;BME280;3695;53.330;9.876;2023-11-22T05:07:02;102016.13;;;3.91;68.49
7309;BME280;3695;53.330;9.876;2023-11-22T05:09:29;102022.16;;;4.15;68.54
7309;BME280;3695;53.330;9.876;2023-11-22T05:11:55;102024.34;;;4.22;68.33
7309;BME280;3695;53.330;9.876;2023-11-22T05:14:22;102024.53;;;3.76;67.84
7309;BME280;3695;53.330;9.876;2023-11-22T05:16:50;102020.03;;;3.73;68.40
7309;BME280;3695;53.330;9.876;2023-11-22T05:19:17;102024.19;;;3.83;68.28
7309;BME280;3695;53.330;9.876;2023-11-22T05:21:43;102029.31;;;3.58;67.37
7309;BME280;3695;53.330;9.876;2023-11-22T05:24:09;102023.34;;;3.47;67.77
7309;BME280;3695;53.330;9.876;2023-11-22T05:26:36;102018.41;;;3.75;67.99
7309;BME280;3695;53.330;9.876;2023-11-22T05:29:03;102030.00;;;4.03;67.38
7309;BME280;3695;53.330;9.876;2023-11-22T05:31:30;102033.34;;;3.78;67.49
7309;BME280;3695;53.330;9.876;2023-11-22T05:33:58;102055.25;;;3.81;67.79
7309;BME280;3695;53.330;9.876;2023-11-22T05:36:24;102044.69;;;3.32;67.22
7309;BME280;3695;53.330;9.876;2023-11-22T05:38:51;102056.38;;;3.13;67.80
7309;BME280;3695;53.330;9.876;2023-11-22T05:41:17;102064.94;;;2.89;67.90
7309;BME280;3695;53.330;9.876;2023-11-22T05:43:43;102070.22;;;2.91;68.31
7309;BME280;3695;53.330;9.876;2023-11-22T05:46:10;102072.75;;;3.36;67.94
7309;BME280;3695;53.330;9.876;2023-11-22T05:48:38;102060.53;;;3.23;67.85
7309;BME280;3695;53.330;9.876;2023-11-22T05:51:06;102059.19;;;3.16;67.90
7309;BME280;3695;53.330;9.876;2023-11-22T05:53:33;102053.75;;;3.60;67.76
7309;BME280;3695;53.330;9.876;2023-11-22T05:56:00;102052.94;;;3.73;67.29
7309;BME280;3695;53.330;9.876;2023-11-22T05:58:26;102053.56;;;3.82;66.85
7309;BME280;3695;53.330;9.876;2023-11-22T06:00:52;102053.06;;;3.51;66.88
7309;BME280;3695;53.330;9.876;2023-11-22T06:03:19;102038.63;;;3.43;66.82
7309;BME280;3695;53.330;9.876;2023-11-22T06:05:46;102048.53;;;3.60;67.01
7309;BME280;3695;53.330;9.876;2023-11-22T06:08:13;102049.84;;;3.78;66.67
7309;BME280;3695;53.330;9.876;2023-11-22T06:10:40;102046.22;;;3.76;67.00
7309;BME280;3695;53.330;9.876;2023-11-22T06:13:07;102047.75;;;3.26;66.50
7309;BME280;3695;53.330;9.876;2023-11-22T06:15:34;102044.72;;;3.20;67.18
7309;BME280;3695;53.330;9.876;2023-11-22T06:18:00;102046.63;;;3.46;67.07
7309;BME280;3695;53.330;9.876;2023-11-22T06:20:26;102037.56;;;3.52;67.20
7309;BME280;3695;53.330;9.876;2023-11-22T06:22:53;102037.53;;;3.76;66.92
7309;BME280;3695;53.330;9.876;2023-11-22T06:25:21;102028.72;;;3.62;67.02
7309;BME280;3695;53.330;9.876;2023-11-22T06:27:47;102030.25;;;3.35;66.96
7309;BME280;3695;53.330;9.876;2023-11-22T06:30:14;102040.56;;;3.82;66.68
7309;BME280;3695;53.330;9.876;2023-11-22T06:32:40;102026.97;;;3.97;67.02
7309;BME280;3695;53.330;9.876;2023-11-22T06:35:08;102023.69;;;3.88;66.45
7309;BME280;3695;53.330;9.876;2023-11-22T06:37:36;102038.09;;;3.83;66.31
7309;BME280;3695;53.330;9.876;2023-11-22T06:40:03;102032.56;;;3.79;66.53
7309;BME280;3695;53.330;9.876;2023-11-22T06:42:32;102028.22;;;3.91;66.97
7309;BME280;3695;53.330;9.876;2023-11-22T06:44:58;102028.63;;;4.08;66.80
7309;BME280;3695;53.330;9.876;2023-11-22T06:47:26;102042.22;;;3.93;66.42
7309;BME280;3695;53.330;9.876;2023-11-22T06:49:52;102031.06;;;3.82;66.70
7309;BME280;3695;53.330;9.876;2023-11-22T06:52:19;102034.72;;;4.09;66.68
7309;BME280;3695;53.330;9.876;2023-11-22T06:54:45;102033.16;;;3.99;66.88
7309;BME280;3695;53.330;9.876;2023-11-22T06:57:12;102046.03;;;4.09;66.50
7309;BME280;3695;53.330;9.876;2023-11-22T06:59:40;102041.03;;;4.13;66.21
7309;BME280;3695;53.330;9.876;2023-11-22T07:02:06;102038.84;;;4.19;66.08
7309;BME280;3695;53.330;9.876;2023-11-22T07:04:33;102041.72;;;4.10;66.72
7309;BME280;3695;53.330;9.876;2023-11-22T07:07:00;102039.75;;;4.19;66.21
7309;BME280;3695;53.330;9.876;2023-11-22T07:09:29;102032.31;;;4.12;66.39
7309;BME280;3695;53.330;9.876;2023-11-22T07:11:55;102026.38;;;4.26;66.00
7309;BME280;3695;53.330;9.876;2023-11-22T07:14:22;102020.81;;;4.33;66.63
7309;BME280;3695;53.330;9.876;2023-11-22T07:16:51;102027.34;;;4.40;65.99
7309;BME280;3695;53.330;9.876;2023-11-22T07:19:18;102029.72;;;4.12;66.52
7309;BME280;3695;53.330;9.876;2023-11-22T07:21:44;102044.00;;;4.05;66.66
7309;BME280;3695;53.330;9.876;2023-11-22T07:24:12;102056.59;;;3.88;66.30
7309;BME280;3695;53.330;9.876;2023-11-22T07:26:40;102048.94;;;3.78;66.47
7309;BME280;3695;53.330;9.876;2023-11-22T07:29:07;102060.09;;;3.88;66.74
7309;BME280;3695;53.330;9.876;2023-11-22T07:31:34;102050.75;;;4.15;66.45
7309;BME280;3695;53.330;9.876;2023-11-22T07:34:03;102058.38;;;4.00;66.60
7309;BME280;3695;53.330;9.876;2023-11-22T07:36:29;102048.00;;;3.89;66.49
7309;BME280;3695;53.330;9.876;2023-11-22T07:38:56;102052.22;;;4.12;67.00
7309;BME280;3695;53.330;9.876;2023-11-22T07:41:22;102066.47;;;4.17;66.30
7309;BME280;3695;53.330;9.876;2023-11-22T07:43:48;102054.56;;;3.95;66.46
7309;BME280;3695;53.330;9.876;2023-11-22T07:46:15;102054.47;;;4.19;66.78
7309;BME280;3695;53.330;9.876;2023-11-22T07:48:44;102071.50;;;4.02;66.56
7309;BME280;3695;53.330;9.876;2023-11-22T07:51:14;102076.50;;;3.87;66.99
7309;BME280;3695;53.330;9.876;2023-11-22T07:53:42;102082.88;;;3.79;66.93
7309;BME280;3695;53.330;9.876;2023-11-22T07:56:08;102079.50;;;4.05;67.37
7309;BME280;3695;53.330;9.876;2023-11-22T07:58:37;102096.97;;;3.94;67.30
7309;BME280;3695;53.330;9.876;2023-11-22T08:01:04;102106.28;;;3.79;67.39
7309;BME280;3695;53.330;9.876;2023-11-22T08:03:31;102108.97;;;3.81;67.54
7309;BME280;3695;53.330;9.876;2023-11-22T08:05:59;102112.56;;;3.94;67.68
7309;BME280;3695;53.330;9.876;2023-11-22T08:08:29;102107.69;;;3.99;67.75
7309;BME280;3695;53.330;9.876;2023-11-22T08:10:56;102105.34;;;4.27;67.47
7309;BME280;3695;53.330;9.876;2023-11-22T08:13:22;102097.78;;;4.18;67.29
7309;BME280;3695;53.330;9.876;2023-11-22T08:15:49;102110.50;;;4.14;67.56
7309;BME280;3695;53.330;9.876;2023-11-22T08:18:16;102105.00;;;4.22;67.76
7309;BME280;3695;53.330;9.876;2023-11-22T08:20:43;102092.31;;;4.63;67.47
7309;BME280;3695;53.330;9.876;2023-11-22T08:23:09;102102.22;;;4.94;67.99
7309;BME280;3695;53.330;9.876;2023-11-22T08:25:39;102086.56;;;4.94;66.99
7309;BME280;3695;53.330;9.876;2023-11-22T08:28:05;102090.00;;;5.06;66.85
7309;BME280;3695;53.330;9.876;2023-11-22T08:30:33;102091.91;;;5.08;66.76
7309;BME280;3695;53.330;9.876;2023-11-22T08:33:01;102099.31;;;5.02;66.23
7309;BME280;3695;53.330;9.876;2023-11-22T08:35:27;102087.81;;;5.12;67.08
7309;BME280;3695;53.330;9.876;2023-11-22T08:37:54;102077.59;;;4.77;67.12
7309;BME280;3695;53.330;9.876;2023-11-22T08:40:22;102065.72;;;4.80;66.85
7309;BME280;3695;53.330;9.876;2023-11-22T08:42:52;102075.56;;;5.11;66.89
7309;BME280;3695;53.330;9.876;2023-11-22T08:45:19;102085.56;;;4.91;66.93
7309;BME280;3695;53.330;9.876;2023-11-22T08:47:45;102097.97;;;4.96;66.72
7309;BME280;3695;53.330;9.876;2023-11-22T08:50:12;102098.41;;;5.02;66.49
7309;BME280;3695;53.330;9.876;2023-11-22T08:52:40;102102.03;;;5.17;67.47
7309;BME280;3695;53.330;9.876;2023-11-22T08:55:08;102097.00;;;4.94;67.09
7309;BME280;3695;53.330;9.876;2023-11-22T08:57:35;102091.22;;;5.24;66.90
7309;BME280;3695;53.330;9.876;2023-11-22T09:00:04;102082.59;;;5.64;67.07
7309;BME280;3695;53.330;9.876;2023-11-22T09:02:34;102082.19;;;5.58;66.99
7309;BME280;3695;53.330;9.876;2023-11-22T09:05:01;102080.09;;;5.40;66.43
7309;BME280;3695;53.330;9.876;2023-11-22T09:07:29;102081.59;;;5.62;66.47
7309;BME280;3695;53.330;9.876;2023-11-22T09:09:55;102093.94;;;5.65;66.26
7309;BME280;3695;53.330;9.876;2023-11-22T09:12:23;102086.50;;;5.71;66.20
7309;BME280;3695;53.330;9.876;2023-11-22T09:14:52;102091.31;;;5.65;66.41
7309;BME280;3695;53.330;9.876;2023-11-22T09:17:20;102088.44;;;5.60;66.47
7309;BME280;3695;53.330;9.876;2023-11-22T09:19:46;102077.94;;;5.87;66.02
7309;BME280;3695;53.330;9.876;2023-11-22T09:22:13;102076.84;;;5.83;66.36
7309;BME280;3695;53.330;9.876;2023-11-22T09:24:40;102079.38;;;5.95;65.86
7309;BME280;3695;53.330;9.876;2023-11-22T09:27:06;102074.84;;;5.92;65.51
7309;BME280;3695;53.330;9.876;2023-11-22T09:29:35;102077.69;;;5.95;65.68
7309;BME280;3695;53.330;9.876;2023-11-22T09:32:02;102091.50;;;5.68;65.01
7309;BME280;3695;53.330;9.876;2023-11-22T09:34:29;102076.88;;;5.96;65.78
7309;BME280;3695;53.330;9.876;2023-11-22T09:36:56;102079.34;;;6.08;65.42
7309;BME280;3695;53.330;9.876;2023-11-22T09:39:24;102090.19;;;6.01;65.40
7309;BME280;3695;53.330;9.876;2023-11-22T09:41:51;102102.66;;;5.92;65.88
7309;BME280;3695;53.330;9.876;2023-11-22T09:44:18;102096.59;;;5.80;65.24
7309;BME280;3695;53.330;9.876;2023-11-22T09:46:45;102105.84;;;5.61;64.91
7309;BME280;3695;53.330;9.876;2023-11-22T09:49:15;102107.25;;;5.83;65.67
7309;BME280;3695;53.330;9.876;2023-11-22T09:51:46;102100.63;;;6.14;65.49
7309;BME280;3695;53.330;9.876;2023-11-22T09:54:14;102113.00;;;6.31;65.18
7309;BME280;3695;53.330;9.876;2023-11-22T09:56:42;102119.88;;;6.16;65.17
7309;BME280;3695;53.330;9.876;2023-11-22T09:59:16;102111.75;;;6.39;65.01
7309;BME280;3695;53.330;9.876;2023-11-22T10:01:44;102107.75;;;6.44;64.75
7309;BME280;3695;53.330;9.876;2023-11-22T10:04:11;102128.44;;;6.41;65.39
7309;BME280;3695;53.330;9.876;2023-11-22T10:06:38;102123.22;;;6.41;65.34
7309;BME280;3695;53.330;9.876;2023-11-22T10:09:07;102123.16;;;6.54;65.11
7309;BME280;3695;53.330;9.876;2023-11-22T10:11:35;102115.06;;;6.65;65.05
7309;BME280;3695;53.330;9.876;2023-11-22T10:14:04;102114.47;;;6.69;64.83
7309;BME280;3695;53.330;9.876;2023-11-22T10:16:30;102106.91;;;6.45;64.54
7309;BME280;3695;53.330;9.876;2023-11-22T10:18:57;102091.19;;;6.59;64.94
7309;BME280;3695;53.330;9.876;2023-11-22T10:21:25;102102.59;;;6.74;64.81
7309;BME280;3695;53.330;9.876;2023-11-22T10:23:53;102089.75;;;6.64;64.67
7309;BME280;3695;53.330;9.876;2023-11-22T10:26:23;102098.38;;;6.48;64.62
7309;BME280;3695;53.330;9.876;2023-11-22T10:28:50;102084.31;;;6.74;64.71
7309;BME280;3695;53.330;9.876;2023-11-22T10:31:17;102079.00;;;6.87;64.73
7309;BME280;3695;53.330;9.876;2023-11-22T10:33:44;102077.03;;;6.98;64.20
7309;BME280;3695;53.330;9.876;2023-11-22T10:36:11;102075.91;;;6.94;63.95
7309;BME280;3695;53.330;9.876;2023-11-22T10:38:38;102078.09;;;7.01;63.68
7309;BME280;3695;53.330;9.876;2023-11-22T10:41:05;102078.19;;;7.03;63.49
7309;BME280;3695;53.330;9.876;2023-11-22T10:43:34;102073.59;;;7.13;63.42
7309;BME280;3695;53.330;9.876;2023-11-22T10:46:02;102066.75;;;6.86;63.76
7309;BME280;3695;53.330;9.876;2023-11-22T10:48:30;102058.53;;;6.94;64.00
7309;BME280;3695;53.330;9.876;2023-11-22T10:51:00;102059.34;;;7.08;63.76
7309;BME280;3695;53.330;9.876;2023-11-22T10:53:31;102044.28;;;7.19;63.54
7309;BME280;3695;53.330;9.876;2023-11-22T10:56:03;102031.22;;;7.19;63.29
7309;BME280;3695;53.330;9.876;2023-11-22T10:58:33;102014.56;;;7.17;63.00
7309;BME280;3695;53.330;9.876;2023-11-22T11:01:04;102019.59;;;7.28;62.82
7309;BME280;3695;53.330;9.876;2023-11-22T11:03:37;102002.53;;;7.35;63.63
7309;BME280;3695;53.330;9.876;2023-11-22T11:06:08;101996.44;;;7.51;62.87
7309;BME280;3695;53.330;9.876;2023-11-22T11:08:38;101997.09;;;7.47;62.36
7309;BME280;3695;53.330;9.876;2023-11-22T11:11:05;101981.88;;;7.40;62.39
7309;BME280;3695;53.330;9.876;2023-11-22T11:13:33;101977.25;;;7.35;62.56
7309;BME280;3695;53.330;9.876;2023-11-22T11:16:00;101987.09;;;7.40;62.64
7309;BME280;3695;53.330;9.876;2023-11-22T11:18:27;101987.38;;;7.60;62.27
7309;BME280;3695;53.330;9.876;2023-11-22T11:20:56;101986.84;;;7.35;62.40
7309;BME280;3695;53.330;9.876;2023-11-22T11:23:25;101983.16;;;7.48;62.15
7309;BME280;3695;53.330;9.876;2023-11-22T11:25:53;101967.56;;;7.18;61.20
7309;BME280;3695;53.330;9.876;2023-11-22T11:28:20;101959.25;;;7.25;60.84
7309;BME280;3695;53.330;9.876;2023-11-22T11:30:49;101943.19;;;7.34;60.53
7309;BME280;3695;53.330;9.876;2023-11-22T11:33:18;101939.78;;;7.35;60.02
7309;BME280;3695;53.330;9.876;2023-11-22T11:35:47;101919.34;;;7.13;60.18
7309;BME280;3695;53.330;9.876;2023-11-22T11:38:15;101903.19;;;7.20;60.25
7309;BME280;3695;53.330;9.876;2023-11-22T11:40:42;101899.44;;;7.15;59.79
7309;BME280;3695;53.330;9.876;2023-11-22T11:43:10;101897.16;;;7.21;59.58
7309;BME280;3695;53.330;9.876;2023-11-22T11:45:38;101900.91;;;7.10;59.00
7309;BME280;3695;53.330;9.876;2023-11-22T11:48:06;101909.75;;;6.98;58.89
7309;BME280;3695;53.330;9.876;2023-11-22T11:50:34;101886.78;;;6.92;58.66
7309;BME280;3695;53.330;9.876;2023-11-22T11:53:00;101861.81;;;6.97;58.78
7309;BME280;3695;53.330;9.876;2023-11-22T11:55:27;101844.72;;;6.87;59.06
7309;BME280;3695;53.330;9.876;2023-11-22T11:57:54;101839.28;;;6.99;59.01
7309;BME280;3695;53.330;9.876;2023-11-22T12:00:22;101845.94;;;6.94;59.08
7309;BME280;3695;53.330;9.876;2023-11-22T12:02:49;101848.78;;;7.13;58.78
7309;BME280;3695;53.330;9.876;2023-11-22T12:05:19;101839.09;;;6.96;58.81
7309;BME280;3695;53.330;9.876;2023-11-22T12:07:46;101827.03;;;7.14;58.97
7309;BME280;3695;53.330;9.876;2023-11-22T12:10:12;101813.25;;;7.17;58.64
7309;BME280;3695;53.330;9.876;2023-11-22T12:12:39;101809.66;;;6.99;58.54
7309;BME280;3695;53.330;9.876;2023-11-22T12:15:08;101811.16;;;6.79;58.43
7309;BME280;3695;53.330;9.876;2023-11-22T12:17:35;101829.31;;;7.08;58.74
7309;BME280;3695;53.330;9.876;2023-11-22T12:20:11;101845.72;;;7.06;58.79
7309;BME280;3695;53.330;9.876;2023-11-22T12:22:41;101877.88;;;7.19;58.58
7309;BME280;3695;53.330;9.876;2023-11-22T12:25:08;101883.34;;;7.24;58.55
7309;BME280;3695;53.330;9.876;2023-11-22T12:27:38;101860.75;;;7.41;58.12
7309;BME280;3695;53.330;9.876;2023-11-22T12:30:06;101844.22;;;7.25;58.00
7309;BME280;3695;53.330;9.876;2023-11-22T12:32:33;101849.91;;;7.18;58.08
7309;BME280;3695;53.330;9.876;2023-11-22T12:35:00;101848.09;;;7.01;57.90
7309;BME280;3695;53.330;9.876;2023-11-22T12:37:27;101844.56;;;7.01;58.66
7309;BME280;3695;53.330;9.876;2023-11-22T12:39:55;101854.06;;;6.99;58.37
7309;BME280;3695;53.330;9.876;2023-11-22T12:42:22;101856.75;;;7.00;58.38
7309;BME280;3695;53.330;9.876;2023-11-22T12:44:49;101849.34;;;7.08;58.37
7309;BME280;3695;53.330;9.876;2023-11-22T12:47:30;101839.41;;;7.17;58.21
7309;BME280;3695;53.330;9.876;2023-11-22T12:50:00;101832.06;;;6.95;57.49
7309;BME280;3695;53.330;9.876;2023-11-22T12:52:27;101827.31;;;6.88;57.92
7309;BME280;3695;53.330;9.876;2023-11-22T12:54:53;101822.06;;;6.72;57.41
7309;BME280;3695;53.330;9.876;2023-11-22T12:57:21;101822.44;;;6.94;57.82
7309;BME280;3695;53.330;9.876;2023-11-22T12:59:48;101820.00;;;6.97;58.07
7309;BME280;3695;53.330;9.876;2023-11-22T13:02:14;101821.06;;;7.01;58.28
7309;BME280;3695;53.330;9.876;2023-11-22T13:04:42;101828.69;;;6.81;57.88
7309;BME280;3695;53.330;9.876;2023-11-22T13:07:08;101833.28;;;6.85;57.56
7309;BME280;3695;53.330;9.876;2023-11-22T13:09:35;101833.56;;;6.75;57.48
7309;BME280;3695;53.330;9.876;2023-11-22T13:12:01;101830.50;;;6.82;57.52
7309;BME280;3695;53.330;9.876;2023-11-22T13:14:31;101820.56;;;6.91;57.53
7309;BME280;3695;53.330;9.876;2023-11-22T13:17:03;101834.31;;;6.73;57.44
7309;BME280;3695;53.330;9.876;2023-11-22T13:19:32;101842.84;;;6.85;57.66
7309;BME280;3695;53.330;9.876;2023-11-22T13:21:58;101844.00;;;6.90;57.87